Time;durP1;ratioP1;P1;durP2;ratioP2;P2;SDS_P1;SDS_P2;PMS_P1;PMS_P2;Temp;Humidity;BMP_temperature;BMP_pressure;BME280_temperature;BME280_humidity;BME280_pressure;Samples;Min_cycle;Max_cycle;Signal;HPM_P1;HPM_P2
2022/10/25 00:02:14;;;;;;;2.57;1.63;;;;;;;12.62;nan;99729.00;4888757;29;20187;-77
2022/10/25 00:04:39;;;;;;;3.00;2.08;;;;;;;12.67;nan;99733.94;4888451;29;20480;-76
2022/10/25 00:07:05;;;;;;;2.23;1.83;;;;;;;12.66;nan;99729.59;4889611;29;20286;-76
2022/10/25 00:09:30;;;;;;;2.93;1.30;;;;;;;12.66;nan;99721.69;4888630;29;20248;-77
2022/10/25 00:11:56;;;;;;;2.63;1.50;;;;;;;12.67;nan;99724.25;4883927;29;20569;-75
2022/10/25 00:14:21;;;;;;;4.10;1.40;;;;;;;12.59;nan;99716.88;4888234;29;20792;-77
2022/10/25 00:16:47;;;;;;;2.07;1.57;;;;;;;12.54;nan;99718.97;4889419;29;20204;-77
2022/10/25 00:19:13;;;;;;;2.37;1.30;;;;;;;12.51;nan;99713.94;4888145;29;20200;-76
2022/10/25 00:21:39;;;;;;;3.45;1.30;;;;;;;12.47;nan;99722.97;4890995;29;20196;-76
2022/10/25 00:24:05;;;;;;;1.50;1.30;;;;;;;12.46;nan;99723.94;4886689;29;20608;-77
2022/10/25 00:26:30;;;;;;;2.80;1.37;;;;;;;12.48;nan;99727.31;4890101;29;20718;-77
2022/10/25 00:28:57;;;;;;;5.28;2.10;;;;;;;12.48;nan;99727.31;4886566;29;20614;-76
2022/10/25 00:31:23;;;;;;;1.40;1.30;;;;;;;12.47;nan;99724.78;4889183;29;20183;-77
2022/10/25 00:33:49;;;;;;;2.40;1.67;;;;;;;12.41;nan;99723.41;4889389;29;20183;-77
2022/10/25 00:36:20;;;;;;;3.10;1.30;;;;;;;12.34;nan;99727.41;4888421;29;20475;-77
2022/10/25 00:38:46;;;;;;;2.40;1.60;;;;;;;12.31;nan;99725.00;4889316;29;20258;-76
2022/10/25 00:41:14;;;;;;;3.10;1.27;;;;;;;12.30;nan;99732.06;4884131;29;20942;-76
2022/10/25 00:43:51;;;;;;;1.73;1.15;;;;;;;12.29;nan;99726.91;4884543;29;20200;-77
2022/10/25 00:46:19;;;;;;;3.70;1.42;;;;;;;12.24;nan;99729.84;4884856;29;20246;-77
2022/10/25 00:49:14;;;;;;;1.80;1.70;;;;;;;12.22;nan;99733.53;4883691;29;20723;-77
2022/10/25 00:51:47;;;;;;;2.80;1.23;;;;;;;12.16;nan;99727.75;4882622;29;20296;-77
2022/10/25 00:54:19;;;;;;;3.67;2.30;;;;;;;12.12;nan;99728.91;4882898;29;20690;-77
2022/10/25 00:56:47;;;;;;;5.50;1.60;;;;;;;12.11;nan;99721.94;4883210;29;20211;-77
2022/10/25 00:59:17;;;;;;;2.40;1.55;;;;;;;12.08;nan;99723.94;4885341;29;20278;-76
2022/10/25 01:01:43;;;;;;;1.60;1.50;;;;;;;12.07;nan;99731.00;4885059;29;20187;-76
2022/10/25 01:04:14;;;;;;;2.30;1.23;;;;;;;12.10;nan;99719.44;4884919;29;20218;-77
2022/10/25 01:10:26;;;;;;;3.30;1.63;;;;;;;12.09;nan;99721.19;4879694;29;20202;-76
2022/10/25 01:12:52;;;;;;;2.13;1.43;;;;;;;12.13;nan;99727.13;4885905;29;20204;-77
2022/10/25 01:15:23;;;;;;;2.23;2.03;;;;;;;12.17;nan;99728.56;4883975;29;20218;-77
2022/10/25 01:18:02;;;;;;;2.50;1.70;;;;;;;12.22;nan;99730.91;4883820;29;20198;-77
2022/10/25 01:20:53;;;;;;;3.13;1.40;;;;;;;12.21;nan;99727.44;4882827;29;20274;-77
2022/10/25 01:23:39;;;;;;;3.10;2.90;;;;;;;12.16;nan;99722.47;4883358;29;20202;-77
2022/10/25 01:26:10;;;;;;;1.63;1.52;;;;;;;12.10;nan;99720.28;4885077;29;20310;-76
2022/10/25 01:29:10;;;;;;;4.35;2.15;;;;;;;12.08;nan;99719.53;4883150;29;20263;-77
2022/10/25 01:31:44;;;;;;;2.33;1.60;;;;;;;12.03;nan;99726.88;4883518;29;20204;-77
2022/10/25 01:34:15;;;;;;;2.78;1.55;;;;;;;12.04;nan;99725.09;4883162;29;20243;-77
2022/10/25 01:37:02;;;;;;;2.42;2.10;;;;;;;12.07;nan;99731.00;4880474;29;20218;-76
2022/10/25 01:39:32;;;;;;;3.05;2.25;;;;;;;12.10;nan;99719.44;4882707;29;20278;-77
2022/10/25 01:42:14;;;;;;;4.20;2.45;;;;;;;12.11;nan;99727.22;4884643;29;20194;-77
2022/10/25 01:45:03;;;;;;;1.98;1.63;;;;;;;12.13;nan;99719.22;4882499;29;20226;-77
2022/10/25 01:47:38;;;;;;;2.80;2.28;;;;;;;12.16;nan;99721.63;4883859;29;20592;-76
2022/10/25 01:50:12;;;;;;;4.45;1.80;;;;;;;12.18;nan;99723.22;4884945;29;20222;-77
2022/10/25 01:52:38;;;;;;;1.75;1.58;;;;;;;12.17;nan;99721.50;4882815;29;20580;-77
2022/10/25 01:55:10;;;;;;;5.80;2.07;;;;;;;12.18;nan;99725.03;4883860;29;20247;-76
2022/10/25 01:58:04;;;;;;;2.72;2.45;;;;;;;12.17;nan;99718.03;4885572;29;20574;-77
2022/10/25 02:00:42;;;;;;;2.08;1.42;;;;;;;12.11;nan;99716.69;4873609;29;20384;-76
2022/10/25 02:03:30;;;;;;;3.78;2.00;;;;;;;12.09;nan;99723.84;4882439;29;20343;-76
2022/10/25 02:06:08;;;;;;;2.92;2.47;;;;;;;12.06;nan;99721.41;4885159;29;20588;-76
2022/10/25 02:08:39;;;;;;;2.42;1.70;;;;;;;12.04;nan;99722.47;4883610;29;20217;-77
2022/10/25 02:11:22;;;;;;;5.43;1.40;;;;;;;12.03;nan;99737.41;4884509;29;20191;-77
2022/10/25 02:14:26;;;;;;;5.85;2.50;;;;;;;12.01;nan;99722.66;4883323;29;20526;-76
2022/10/25 02:17:18;;;;;;;2.63;1.75;;;;;;;11.97;nan;99716.78;4883744;29;20231;-77
2022/10/25 02:19:57;;;;;;;1.70;1.50;;;;;;;11.97;nan;99723.84;4883953;29;20194;-77
2022/10/25 02:22:28;;;;;;;2.55;1.73;;;;;;;11.96;nan;99717.72;4883064;29;20187;-76
2022/10/25 02:24:56;;;;;;;5.05;1.80;;;;;;;11.97;nan;99718.59;4882054;29;20211;-76
2022/10/25 02:27:24;;;;;;;4.18;2.05;;;;;;;11.96;nan;99712.44;4881993;29;20239;-76
2022/10/25 02:29:52;;;;;;;1.95;1.20;;;;;;;11.94;nan;99712.56;4883874;29;20207;-77
2022/10/25 02:32:17;;;;;;;8.50;2.53;;;;;;;11.92;nan;99705.72;4882625;29;20198;-77
2022/10/25 02:34:47;;;;;;;2.70;2.00;;;;;;;11.88;nan;99705.09;4883098;29;20321;-78
2022/10/25 02:37:12;;;;;;;2.58;1.75;;;;;;;11.86;nan;99706.16;4881815;29;20692;-76
2022/10/25 02:39:38;;;;;;;1.70;1.50;;;;;;;11.87;nan;99705.19;4882104;29;20199;-77
2022/10/25 02:42:04;;;;;;;5.80;1.70;;;;;;;11.86;nan;99706.16;4883858;29;20199;-77
2022/10/25 02:44:30;;;;;;;5.53;2.17;;;;;;;11.85;nan;99707.03;4880338;29;20355;-76
2022/10/25 02:46:56;;;;;;;1.90;1.60;;;;;;;11.85;nan;99707.88;4883236;29;20219;-77
2022/10/25 02:49:22;;;;;;;2.90;1.42;;;;;;;11.85;nan;99702.59;4880424;29;20952;-78
2022/10/25 02:51:47;;;;;;;2.03;1.60;;;;;;;11.86;nan;99698.25;4881843;29;20206;-77
2022/10/25 02:54:13;;;;;;;2.40;1.70;;;;;;;11.86;nan;99703.50;4881248;29;20190;-77
2022/10/25 02:56:38;;;;;;;1.40;1.20;;;;;;;11.86;nan;99706.16;4882154;29;20230;-78
2022/10/25 02:59:03;;;;;;;3.20;1.90;;;;;;;11.85;nan;99701.78;4880761;29;20191;-77
2022/10/25 03:01:29;;;;;;;2.03;1.73;;;;;;;11.84;nan;99695.66;4883761;29;20187;-78
2022/10/25 03:03:55;;;;;;;3.08;1.63;;;;;;;11.83;nan;99699.25;4882850;29;20306;-77
2022/10/25 03:06:21;;;;;;;2.63;1.40;;;;;;;11.83;nan;99693.16;4883084;29;20223;-77
2022/10/25 03:08:47;;;;;;;4.07;2.00;;;;;;;11.81;nan;99692.41;4883656;29;20195;-77
2022/10/25 03:11:14;;;;;;;4.63;2.07;;;;;;;11.81;nan;99700.31;4880761;29;20195;-77
2022/10/25 03:13:39;;;;;;;3.20;2.03;;;;;;;11.84;nan;99697.47;4886364;29;20927;-77
2022/10/25 03:16:05;;;;;;;2.20;1.57;;;;;;;11.85;nan;99701.78;4885369;29;20230;-78
2022/10/25 03:18:31;;;;;;;1.57;1.47;;;;;;;11.85;nan;99693.88;4885864;29;21030;-78
2022/10/25 03:20:58;;;;;;;2.60;1.67;;;;;;;11.83;nan;99695.78;4886367;29;20438;-77
2022/10/25 03:23:24;;;;;;;3.47;1.30;;;;;;;11.82;nan;99701.97;4885982;29;20258;-78
2022/10/25 03:25:54;;;;;;;5.22;1.73;;;;;;;11.82;nan;99699.34;4883699;29;20246;-78
2022/10/25 03:28:20;;;;;;;2.85;1.67;;;;;;;11.78;nan;99698.72;4886489;29;20199;-78
2022/10/25 03:30:45;;;;;;;3.73;1.90;;;;;;;11.78;nan;99705.78;4887088;29;20187;-77
2022/10/25 03:33:11;;;;;;;3.77;1.60;;;;;;;11.76;nan;99699.78;4881572;29;20231;-78
2022/10/25 03:35:36;;;;;;;2.00;1.33;;;;;;;11.74;nan;99708.59;4884928;29;20187;-77
2022/10/25 03:38:02;;;;;;;2.40;1.60;;;;;;;11.73;nan;99706.09;4879264;29;20183;-78
2022/10/25 03:40:27;;;;;;;3.73;1.77;;;;;;;11.73;nan;99708.72;4878510;29;20512;-77
2022/10/25 03:42:52;;;;;;;2.50;1.80;;;;;;;11.70;nan;99709.75;4882186;29;20822;-78
2022/10/25 03:45:19;;;;;;;2.10;1.63;;;;;;;11.70;nan;99715.03;4879704;29;20225;-76
2022/10/25 03:47:44;;;;;;;1.60;1.45;;;;;;;11.69;nan;99715.97;4882389;29;20266;-78
2022/10/25 03:50:10;;;;;;;2.90;1.80;;;;;;;11.68;nan;99719.53;4886530;29;20613;-78
2022/10/25 03:52:35;;;;;;;3.93;1.70;;;;;;;11.64;nan;99719.88;4883166;29;20187;-78
2022/10/25 03:55:02;;;;;;;2.63;2.07;;;;;;;11.62;nan;99716.47;4887429;29;20720;-77
2022/10/25 03:57:27;;;;;;;1.85;1.75;;;;;;;11.59;nan;99716.69;4884254;29;20294;-78
2022/10/25 03:59:53;;;;;;;2.70;2.00;;;;;;;11.54;nan;99722.25;4885377;29;20282;-78
2022/10/25 04:02:18;;;;;;;3.23;1.90;;;;;;;11.51;nan;99725.06;4886388;29;20186;-78
2022/10/25 04:04:43;;;;;;;2.43;1.27;;;;;;;11.49;nan;99719.91;4898368;29;20211;-78
2022/10/25 04:07:09;;;;;;;6.43;1.63;;;;;;;11.46;nan;99719.28;4885550;29;20215;-78
2022/10/25 04:09:34;;;;;;;5.60;3.30;;;;;;;11.43;nan;99722.94;4883131;29;20187;-78
2022/10/25 04:12:00;;;;;;;1.50;1.40;;;;;;;11.42;nan;99729.16;4886211;29;20184;-77
2022/10/25 04:14:25;;;;;;;5.30;1.67;;;;;;;11.42;nan;99723.03;4887899;29;20191;-77
2022/10/25 04:16:51;;;;;;;2.47;1.70;;;;;;;11.42;nan;99726.53;4893100;29;20715;-78
2022/10/25 04:19:16;;;;;;;3.43;1.93;;;;;;;11.44;nan;99726.41;4886628;29;20223;-78
2022/10/25 04:21:41;;;;;;;2.47;2.27;;;;;;;11.45;nan;99733.34;4888868;29;20210;-77
2022/10/25 04:24:07;;;;;;;5.40;1.53;;;;;;;11.44;nan;99726.41;4889264;29;20290;-77
2022/10/25 04:26:36;;;;;;;2.10;1.70;;;;;;;11.42;nan;99723.03;4886921;29;20231;-76
2022/10/25 04:29:03;;;;;;;3.03;1.88;;;;;;;11.41;nan;99724.00;4887033;29;20646;-77
2022/10/25 04:31:28;;;;;;;2.08;1.88;;;;;;;11.37;nan;99719.84;4886774;29;20179;-76
2022/10/25 04:33:54;;;;;;;2.93;1.93;;;;;;;11.34;nan;99714.81;4887663;29;20187;-78
2022/10/25 04:36:20;;;;;;;3.03;1.90;;;;;;;11.29;nan;99710.69;4885735;29;20210;-76
2022/10/25 04:38:49;;;;;;;2.95;2.10;;;;;;;11.25;nan;99711.81;4887405;29;20564;-79
2022/10/25 04:41:15;;;;;;;4.45;1.65;;;;;;;11.19;nan;99725.38;4888583;29;20231;-77
2022/10/25 04:43:40;;;;;;;3.13;2.00;;;;;;;11.14;nan;99718.72;4887228;29;20200;-76
2022/10/25 04:46:06;;;;;;;2.20;1.90;;;;;;;11.10;nan;99711.97;4884668;29;20340;-76
2022/10/25 04:48:31;;;;;;;4.57;2.10;;;;;;;11.04;nan;99718.47;4885465;29;20199;-77
2022/10/25 04:51:00;;;;;;;3.40;1.93;;;;;;;11.01;nan;99716.88;4885787;29;20191;-76
2022/10/25 04:53:25;;;;;;;5.20;2.45;;;;;;;10.98;nan;99719.69;4885940;29;20438;-77
2022/10/25 04:56:02;;;;;;;4.73;1.53;;;;;;;10.96;nan;99723.38;4885088;29;20200;-77
2022/10/25 04:58:27;;;;;;;3.55;2.60;;;;;;;10.95;nan;99719.91;4886184;29;20194;-76
2022/10/25 05:00:57;;;;;;;3.43;1.60;;;;;;;10.96;nan;99720.72;4885598;29;20199;-77
2022/10/25 05:03:22;;;;;;;7.07;2.20;;;;;;;10.95;nan;99729.56;4882270;29;20556;-77
2022/10/25 05:05:48;;;;;;;1.83;1.67;;;;;;;10.97;nan;99733.78;4884392;29;20215;-76
2022/10/25 05:08:13;;;;;;;3.70;2.00;;;;;;;10.96;nan;99729.47;4883201;29;20254;-76
2022/10/25 05:10:38;;;;;;;3.50;1.63;;;;;;;10.96;nan;99731.25;4882672;29;20569;-77
2022/10/25 05:13:04;;;;;;;1.67;1.57;;;;;;;10.93;nan;99726.19;4881817;29;20294;-75
2022/10/25 05:15:29;;;;;;;1.43;1.13;;;;;;;10.92;nan;99729.78;4884352;29;20695;-77
2022/10/25 05:17:58;;;;;;;3.93;3.10;;;;;;;10.87;nan;99723.97;4880102;29;20227;-76
2022/10/25 05:20:24;;;;;;;2.10;1.90;;;;;;;10.81;nan;99731.28;4879777;29;20195;-76
2022/10/25 05:22:50;;;;;;;2.85;2.50;;;;;;;10.79;nan;99733.16;4883241;29;20469;-76
2022/10/25 05:25:15;;;;;;;5.03;2.47;;;;;;;10.78;nan;99728.84;4884660;29;20227;-76
2022/10/25 05:27:41;;;;;;;8.93;2.67;;;;;;;10.79;nan;99727.91;4881737;29;20716;-79
2022/10/25 05:30:07;;;;;;;4.20;3.10;;;;;;;10.80;nan;99732.22;4882992;29;20203;-80
2022/10/25 05:32:33;;;;;;;3.35;2.08;;;;;;;10.80;nan;99732.22;4885022;29;20199;-79
2022/10/25 05:34:58;;;;;;;6.37;2.37;;;;;;;10.79;nan;99730.53;4883596;29;20784;-79
2022/10/25 05:37:23;;;;;;;10.93;2.80;;;;;;;10.78;nan;99728.00;4882076;29;20199;-81
2022/10/25 05:39:49;;;;;;;3.30;2.10;;;;;;;10.74;nan;99729.97;4884764;29;20219;-79
2022/10/25 05:42:14;;;;;;;5.10;2.63;;;;;;;10.73;nan;99730.06;4883348;29;20231;-79
2022/10/25 05:44:40;;;;;;;3.33;2.20;;;;;;;10.70;nan;99733.75;4883418;29;20331;-81
2022/10/25 05:47:05;;;;;;;3.43;2.20;;;;;;;10.70;nan;99728.47;4882865;29;20215;-79
2022/10/25 05:49:30;;;;;;;2.20;1.90;;;;;;;10.70;nan;99741.63;4883181;29;20278;-79
2022/10/25 05:51:56;;;;;;;4.30;3.20;;;;;;;10.72;nan;99731.88;4885213;29;20669;-80
2022/10/25 05:54:22;;;;;;;4.60;3.20;;;;;;;10.71;nan;99743.28;4883267;29;20182;-79
2022/10/25 05:56:47;;;;;;;5.53;2.10;;;;;;;10.73;nan;99740.59;4882314;29;20210;-79
2022/10/25 05:59:13;;;;;;;3.47;1.90;;;;;;;10.68;nan;99738.25;4883164;29;20302;-79
2022/10/25 06:01:41;;;;;;;3.35;2.65;;;;;;;10.68;nan;99740.88;4884958;29;20331;-79
2022/10/25 06:04:08;;;;;;;3.05;2.25;;;;;;;10.66;nan;99740.09;4884405;29;20211;-80
2022/10/25 06:06:34;;;;;;;5.25;2.10;;;;;;;10.65;nan;99746.31;4882963;29;20230;-80
2022/10/25 06:09:00;;;;;;;4.13;1.90;;;;;;;10.63;nan;99743.75;4881471;29;20427;-79
2022/10/25 06:11:27;;;;;;;6.83;2.30;;;;;;;10.59;nan;99749.31;4885366;29;20199;-79
2022/10/25 06:13:53;;;;;;;1.77;1.65;;;;;;;10.51;nan;99743.69;4885013;29;20447;-79
2022/10/25 06:16:20;;;;;;;2.80;1.60;;;;;;;10.47;nan;99747.44;4882725;29;20219;-80
2022/10/25 06:18:45;;;;;;;4.90;1.85;;;;;;;10.47;nan;99744.81;4881302;29;20263;-80
2022/10/25 06:21:16;;;;;;;4.50;3.30;;;;;;;10.48;nan;99754.41;4885712;29;20196;-80
2022/10/25 06:23:43;;;;;;;3.90;2.60;;;;;;;10.48;nan;99749.16;4883284;29;20444;-79
2022/10/25 06:26:14;;;;;;;3.47;2.72;;;;;;;10.48;nan;99760.47;4880650;29;20432;-80
2022/10/25 06:28:40;;;;;;;3.05;2.47;;;;;;;10.54;nan;99764.50;4882691;29;20244;-80
2022/10/25 06:31:11;;;;;;;3.05;2.08;;;;;;;10.56;nan;99760.03;4884430;29;20190;-80
2022/10/25 06:33:37;;;;;;;5.47;2.20;;;;;;;10.59;nan;99760.66;4882115;29;20228;-79
2022/10/25 06:36:06;;;;;;;6.30;2.22;;;;;;;10.63;nan;99771.81;4874983;29;20206;-81
2022/10/25 06:38:32;;;;;;;2.92;2.58;;;;;;;10.65;nan;99777.00;4877574;29;20674;-81
2022/10/25 06:40:59;;;;;;;3.22;2.70;;;;;;;10.67;nan;99772.50;4877323;29;20192;-79
2022/10/25 06:43:25;;;;;;;2.75;2.53;;;;;;;10.72;nan;99773.91;4878600;29;20204;-79
2022/10/25 06:45:51;;;;;;;2.85;2.65;;;;;;;10.76;nan;99778.00;4875841;29;20230;-81
2022/10/25 06:48:16;;;;;;;3.00;2.27;;;;;;;10.78;nan;99773.53;4879623;29;20203;-79
2022/10/25 06:50:42;;;;;;;3.47;2.77;;;;;;;10.82;nan;99788.13;4877583;29;20195;-79
2022/10/25 06:53:07;;;;;;;3.63;2.93;;;;;;;10.85;nan;99774.84;4879567;29;20197;-79
2022/10/25 06:55:33;;;;;;;2.43;2.23;;;;;;;10.92;nan;99784.97;4876373;29;20193;-81
2022/10/25 06:58:28;;;;;;;4.20;2.77;;;;;;;10.98;nan;99781.94;4971217;23;20650;-80
2022/10/25 07:00:53;;;;;;;4.70;3.20;;;;;;;11.06;nan;99787.56;4889250;29;20227;-77
2022/10/25 07:03:21;;;;;;;8.33;3.40;;;;;;;11.11;nan;99787.28;4885104;29;20281;-76
2022/10/25 07:05:46;;;;;;;9.55;5.43;;;;;;;11.17;nan;99790.34;4886428;29;20225;-75
2022/10/25 07:08:12;;;;;;;8.20;4.90;;;;;;;11.23;nan;99789.13;4877166;29;20196;-77
2022/10/25 07:10:38;;;;;;;8.07;4.73;;;;;;;11.29;nan;99792.22;4873844;29;20189;-77
2022/10/25 07:13:04;;;;;;;10.15;3.72;;;;;;;11.37;nan;99793.50;4878285;29;20862;-75
2022/10/25 07:15:29;;;;;;;5.80;3.00;;;;;;;11.43;nan;99798.38;4893069;29;20267;-77
2022/10/25 07:17:54;;;;;;;4.90;3.70;;;;;;;11.51;nan;99793.47;4897113;29;20204;-75
2022/10/25 07:20:20;;;;;;;3.67;2.83;;;;;;;11.59;nan;99798.25;4894725;29;20683;-77
2022/10/25 07:22:45;;;;;;;10.77;3.40;;;;;;;11.67;nan;99796.78;4894915;29;20196;-77
2022/10/25 07:25:10;;;;;;;6.07;3.50;;;;;;;11.76;nan;99800.59;4899504;29;20219;-75
2022/10/25 07:27:36;;;;;;;5.60;3.10;;;;;;;11.83;nan;99795.81;4897335;29;20504;-75
2022/10/25 07:30:01;;;;;;;4.80;2.77;;;;;;;11.90;nan;99791.84;4895579;29;20540;-77
2022/10/25 07:32:27;;;;;;;7.40;3.00;;;;;;;11.98;nan;99796.59;4897994;29;20210;-77
2022/10/25 07:34:52;;;;;;;4.27;2.80;;;;;;;12.05;nan;99797.88;4897093;29;20409;-74
2022/10/25 07:37:17;;;;;;;4.90;4.00;;;;;;;12.12;nan;99802.66;4896631;29;20329;-75
2022/10/25 07:39:43;;;;;;;3.70;3.37;;;;;;;12.22;nan;99802.00;4895313;29;20209;-75
2022/10/25 07:42:08;;;;;;;5.87;3.60;;;;;;;12.31;nan;99796.97;4897848;29;20221;-76
2022/10/25 07:44:34;;;;;;;5.47;3.60;;;;;;;12.39;nan;99792.03;4897382;29;20688;-75
2022/10/25 07:46:59;;;;;;;4.33;3.03;;;;;;;12.50;nan;99796.56;4897533;29;20290;-76
2022/10/25 07:49:24;;;;;;;3.40;2.53;;;;;;;12.62;nan;99797.50;4897730;29;20182;-74
2022/10/25 07:51:50;;;;;;;5.27;3.13;;;;;;;12.74;nan;99794.00;4901904;29;20274;-77
2022/10/25 07:54:15;;;;;;;3.03;2.63;;;;;;;12.85;nan;99795.88;4899903;29;20556;-75
2022/10/25 07:56:40;;;;;;;4.40;3.67;;;;;;;12.98;nan;99791.44;4899924;29;20210;-74
2022/10/25 07:59:06;;;;;;;4.20;3.20;;;;;;;13.12;nan;99786.97;4900119;29;20218;-76
2022/10/25 08:01:31;;;;;;;4.53;2.50;;;;;;;13.24;nan;99794.88;4900896;29;20570;-75
2022/10/25 08:03:57;;;;;;;5.10;2.80;;;;;;;13.39;nan;99790.31;4897677;29;20221;-76
2022/10/25 08:06:23;;;;;;;2.80;2.30;;;;;;;13.53;nan;99785.81;4898321;29;20572;-76
2022/10/25 08:08:49;;;;;;;3.25;2.28;;;;;;;13.69;nan;99783.75;4897256;29;20258;-76
2022/10/25 08:11:15;;;;;;;4.93;2.67;;;;;;;13.81;nan;99787.28;4900707;29;20274;-76
2022/10/25 08:13:40;;;;;;;3.93;2.70;;;;;;;13.92;nan;99788.16;4897042;29;20190;-76
2022/10/25 08:16:06;;;;;;;3.00;2.70;;;;;;;14.04;nan;99794.34;4899762;29;20624;-75
2022/10/25 08:18:32;;;;;;;6.10;3.23;;;;;;;14.28;nan;99786.34;4899899;29;20595;-76
2022/10/25 08:20:59;;;;;;;3.70;2.00;;;;;;;15.19;nan;99772.22;4899221;29;20954;-76
2022/10/25 08:23:25;;;;;;;2.60;1.95;;;;;;;16.49;nan;99771.19;4898589;29;20465;-74
2022/10/25 08:25:51;;;;;;;4.50;1.93;;;;;;;17.94;nan;99769.94;4892048;29;20792;-74
2022/10/25 08:28:16;;;;;;;2.40;1.93;;;;;;;19.25;nan;99766.44;4898214;29;20235;-75
2022/10/25 08:30:42;;;;;;;2.50;2.07;;;;;;;20.26;nan;99769.72;4896684;29;20541;-74
2022/10/25 08:33:08;;;;;;;2.80;2.20;;;;;;;21.07;nan;99768.53;4895883;29;20187;-74
2022/10/25 08:35:34;;;;;;;6.03;2.53;;;;;;;21.79;nan;99766.22;4897498;29;20198;-76
2022/10/25 08:38:00;;;;;;;;;;;;;;;22.57;nan;99762.13;4900286;29;20296;-77
2022/10/25 08:40:36;;;;;;;3.78;3.03;;;;;;;23.62;nan;99754.63;4896529;29;20809;-76
2022/10/25 08:43:14;;;;;;;3.15;2.40;;;;;;;24.69;nan;99751.88;4897921;29;20938;-77
2022/10/25 08:45:49;;;;;;;4.28;2.70;;;;;;;25.39;nan;99753.16;4898013;29;20437;-77
2022/10/25 08:48:18;;;;;;;4.33;2.23;;;;;;;25.63;nan;99750.28;4897935;29;20190;-76
2022/10/25 08:50:52;;;;;;;3.43;2.37;;;;;;;25.90;nan;99754.94;4897050;29;20890;-74
2022/10/25 08:53:33;;;;;;;3.60;2.10;;;;;;;26.18;nan;99754.97;4899379;29;20442;-77
2022/10/25 08:56:00;;;;;;;2.13;1.93;;;;;;;26.30;nan;99751.72;4899689;29;20763;-75
2022/10/25 08:58:31;;;;;;;4.63;2.40;;;;;;;26.54;nan;99742.38;4896613;29;20897;-76
2022/10/25 09:01:01;;;;;;;4.00;2.60;;;;;;;26.89;nan;99748.59;4898236;29;20434;-78
2022/10/25 09:03:26;;;;;;;2.60;1.90;;;;;;;26.98;nan;99752.78;4896167;29;20436;-76
2022/10/25 09:06:06;;;;;;;2.10;1.90;;;;;;;26.92;nan;99748.19;4900025;29;20605;-75
2022/10/25 09:08:50;;;;;;;4.37;1.90;;;;;;;27.16;nan;99746.81;4900006;29;20520;-75
2022/10/25 09:11:52;;;;;;;3.20;2.40;;;;;;;27.24;nan;99748.56;4897357;29;20455;-75
2022/10/25 09:14:33;;;;;;;3.03;2.13;;;;;;;27.12;nan;99750.97;4899997;29;20488;-75
2022/10/25 09:17:03;;;;;;;3.30;1.50;;;;;;;27.25;nan;99745.66;4897344;29;20502;-75
2022/10/25 09:19:59;;;;;;;3.00;1.93;;;;;;;27.03;nan;99744.94;4897984;29;20534;-76
2022/10/25 09:22:27;;;;;;;3.57;2.63;;;;;;;26.37;nan;99748.06;4897045;29;20537;-77
2022/10/25 09:24:59;;;;;;;4.67;2.23;;;;;;;25.99;nan;99748.41;4898809;29;20473;-75
2022/10/25 09:27:33;;;;;;;3.53;2.47;;;;;;;25.76;nan;99751.28;4897128;29;20563;-77
2022/10/25 09:30:08;;;;;;;4.40;3.03;;;;;;;25.52;nan;99752.50;4895127;29;20432;-77
2022/10/25 09:33:09;;;;;;;5.93;3.27;;;;;;;25.14;nan;99751.81;4898302;29;20432;-76
2022/10/25 09:35:52;;;;;;;4.00;2.60;;;;;;;24.70;nan;99747.31;4859330;29;20429;-75
2022/10/25 09:38:37;;;;;;;6.10;3.30;;;;;;;24.20;nan;99751.53;4895669;29;20514;-76
2022/10/25 09:41:10;;;;;;;3.80;3.40;;;;;;;23.73;nan;99745.34;4899666;29;20955;-76
2022/10/25 09:43:41;;;;;;;4.47;2.37;;;;;;;23.32;nan;99747.47;4901282;29;20450;-77
2022/10/25 09:46:43;;;;;;;4.07;2.40;;;;;;;22.85;nan;99745.66;4901945;29;20469;-77
2022/10/25 09:49:39;;;;;;;5.63;2.33;;;;;;;22.34;nan;99753.19;4897663;29;21091;-74
2022/10/25 09:52:20;;;;;;;2.37;1.40;;;;;;;21.97;nan;99752.66;4899262;29;20449;-76
2022/10/25 09:54:58;;;;;;;3.93;1.80;;;;;;;21.57;nan;99751.63;4898770;29;20461;-76
2022/10/25 09:57:24;;;;;;;5.17;1.83;;;;;;;21.25;nan;99752.38;4898868;29;20428;-75
2022/10/25 09:59:50;;;;;;;3.83;1.67;;;;;;;21.04;nan;99747.47;4899472;29;20421;-77
2022/10/25 10:02:24;;;;;;;3.70;1.70;;;;;;;20.98;nan;99750.78;4898721;29;20188;-77
2022/10/25 10:04:50;;;;;;;1.63;1.50;;;;;;;20.94;nan;99755.59;4897247;29;20449;-76
2022/10/25 10:07:19;;;;;;;4.50;1.70;;;;;;;20.86;nan;99752.06;4901474;29;20526;-75
2022/10/25 10:09:47;;;;;;;3.03;1.70;;;;;;;20.82;nan;99748.91;4898936;29;20514;-75
2022/10/25 10:12:40;;;;;;;3.77;1.70;;;;;;;20.81;nan;99747.22;4898413;29;20487;-77
2022/10/25 10:15:16;;;;;;;2.80;1.90;;;;;;;20.77;nan;99743.19;4898966;29;20732;-76
2022/10/25 10:17:41;;;;;;;2.80;1.60;;;;;;;20.72;nan;99746.34;4899551;29;20494;-75
2022/10/25 10:20:08;;;;;;;5.47;1.87;;;;;;;20.64;nan;99748.13;4897384;29;20935;-77
2022/10/25 10:22:37;;;;;;;6.03;2.70;;;;;;;20.57;nan;99745.25;4888488;29;20768;-75
2022/10/25 10:25:03;;;;;;;7.13;2.40;;;;;;;20.54;nan;99743.75;4899324;29;20478;-77
2022/10/25 10:27:31;;;;;;;1.30;1.20;;;;;;;20.55;nan;99729.41;4897940;29;20496;-77
2022/10/25 10:30:06;;;;;;;1.80;1.40;;;;;;;20.55;nan;99733.94;4898093;29;20671;-77
2022/10/25 10:32:36;;;;;;;7.00;1.50;;;;;;;20.54;nan;99740.25;4899291;29;20439;-76
2022/10/25 10:35:23;;;;;;;5.10;3.13;;;;;;;20.51;nan;99737.84;4897753;29;20443;-75
2022/10/25 10:37:48;;;;;;;4.53;1.50;;;;;;;20.47;nan;99737.34;4895358;29;20438;-75
2022/10/25 10:40:17;;;;;;;3.77;1.83;;;;;;;20.44;nan;99732.34;4896261;29;20442;-77
2022/10/25 10:42:42;;;;;;;6.00;1.73;;;;;;;20.47;nan;99728.50;4897397;29;20233;-76
2022/10/25 10:45:07;;;;;;;2.30;1.40;;;;;;;20.53;nan;99728.72;4896973;29;20476;-77
2022/10/25 10:47:48;;;;;;;3.63;1.30;;;;;;;20.61;nan;99721.78;4897792;29;20222;-77
2022/10/25 10:50:20;;;;;;;1.27;1.17;;;;;;;20.65;nan;99728.44;4899480;29;20201;-76
2022/10/25 10:52:51;;;;;;;1.40;1.23;;;;;;;20.65;nan;99721.28;4899256;29;20431;-75
2022/10/25 10:55:21;;;;;;;1.43;1.10;;;;;;;20.71;nan;99727.81;4897790;29;20455;-76
2022/10/25 10:57:47;;;;;;;2.50;1.33;;;;;;;20.75;nan;99722.00;4895097;29;20978;-77
2022/10/25 11:00:26;;;;;;;1.93;1.40;;;;;;;20.73;nan;99720.47;4895604;29;20433;-76
2022/10/25 11:02:52;;;;;;;1.97;1.40;;;;;;;20.69;nan;99717.31;4898668;29;20224;-76
2022/10/25 11:05:30;;;;;;;1.63;1.17;;;;;;;20.65;nan;99718.59;4898105;29;20541;-77
2022/10/25 11:08:16;;;;;;;4.73;1.40;;;;;;;20.64;nan;99711.59;4896266;29;20541;-77
2022/10/25 11:10:42;;;;;;;3.33;1.37;;;;;;;20.70;nan;99708.28;4895541;29;20924;-76
2022/10/25 11:13:18;;;;;;;3.60;1.47;;;;;;;20.73;nan;99712.47;4894924;29;20533;-78
2022/10/25 11:15:59;;;;;;;5.10;1.60;;;;;;;20.74;nan;99709.66;4895138;29;20225;-77
2022/10/25 11:18:40;;;;;;;2.07;1.53;;;;;;;20.74;nan;99708.81;4894838;29;20752;-76
2022/10/25 11:21:47;;;;;;;5.53;1.10;;;;;;;20.76;nan;99704.13;4896934;29;20938;-77
2022/10/25 11:24:50;;;;;;;2.00;1.20;;;;;;;20.80;nan;99696.66;4895499;29;20452;-77
2022/10/25 11:27:34;;;;;;;2.37;1.47;;;;;;;20.84;nan;99700.66;4895430;29;20696;-76
2022/10/25 11:30:03;;;;;;;2.70;1.07;;;;;;;20.92;nan;99692.69;5058997;23;20507;-74
2022/10/25 11:33:17;;;;;;;1.40;1.20;;;;;;;21.00;nan;99685.53;4873124;29;20452;-74
2022/10/25 11:36:30;;;;;;;2.23;1.30;;;;;;;21.03;nan;99694.22;4890699;29;20407;-73
2022/10/25 11:39:06;;;;;;;1.90;1.20;;;;;;;21.03;nan;99686.22;4875001;29;21005;-73
2022/10/25 11:41:48;;;;;;;3.33;1.50;;;;;;;21.06;nan;99689.38;4886973;29;20420;-73
2022/10/25 11:44:22;;;;;;;1.80;1.40;;;;;;;21.14;nan;99685.91;4888502;29;21466;-73
2022/10/25 11:47:08;;;;;;;3.37;1.13;;;;;;;21.16;nan;99684.72;4891611;29;20448;-74
2022/10/25 11:49:57;;;;;;;1.73;1.47;;;;;;;21.19;nan;99681.72;4887462;29;20788;-73
2022/10/25 11:52:34;;;;;;;2.60;1.50;;;;;;;21.21;nan;99676.22;4887727;29;20913;-73
2022/10/25 11:55:09;;;;;;;3.70;1.33;;;;;;;21.21;nan;99671.72;4886177;29;20423;-73
2022/10/25 11:58:06;;;;;;;2.63;1.40;;;;;;;21.25;nan;99671.38;4890163;29;20786;-73
2022/10/25 12:00:50;;;;;;;2.37;1.30;;;;;;;21.32;nan;99665.22;4875311;29;20458;-73
2022/10/25 12:03:38;;;;;;;2.10;1.43;;;;;;;21.37;nan;99662.94;4887831;29;20507;-73
2022/10/25 12:06:24;;;;;;;1.37;1.00;;;;;;;21.37;nan;99657.59;4887747;29;20453;-73
2022/10/25 12:08:56;;;;;;;2.27;1.00;;;;;;;21.36;nan;99655.88;4889508;29;20596;-73
2022/10/25 12:11:26;;;;;;;5.47;1.80;;;;;;;21.35;nan;99659.53;4887080;29;20417;-73
2022/10/25 12:13:57;;;;;;;2.17;1.00;;;;;;;21.31;nan;99652.88;4889499;29;20657;-73